Time;durP1;ratioP1;P1;durP2;ratioP2;P2;SDS_P1;SDS_P2;PMS_P1;PMS_P2;Temp;Humidity;BMP_temperature;BMP_pressure;BME280_temperature;BME280_humidity;BME280_pressure;Samples;Min_cycle;Max_cycle;Signal;HPM_P1;HPM_P2
2023/04/15 00:01:27;;;;;;;7.70;4.07;;;5.50;99.90;;;;;;4859043;29;20038;-78
2023/04/15 00:03:55;;;;;;;10.73;4.10;;;5.50;99.90;;;;;;4858871;29;20042;-81
2023/04/15 00:06:22;;;;;;;9.70;4.13;;;5.40;99.90;;;;;;4876319;29;20049;-81
2023/04/15 00:08:51;;;;;;;8.35;3.72;;;5.40;99.90;;;;;;4877127;29;20097;-81
2023/04/15 00:11:18;;;;;;;7.32;4.07;;;5.30;99.90;;;;;;4876711;29;20087;-81
2023/04/15 00:13:45;;;;;;;8.68;4.75;;;5.30;99.90;;;;;;4861974;29;20068;-81
2023/04/15 00:16:12;;;;;;;8.68;3.83;;;5.50;99.90;;;;;;4892004;29;20041;-81
2023/04/15 00:18:39;;;;;;;7.65;3.78;;;5.20;99.90;;;;;;4861771;29;20037;-79
2023/04/15 00:21:05;;;;;;;8.20;4.10;;;5.20;99.90;;;;;;4861554;29;20041;-78
2023/04/15 00:23:32;;;;;;;8.52;4.35;;;5.20;99.90;;;;;;4876712;29;20046;-78
2023/04/15 00:25:59;;;;;;;11.10;4.95;;;5.20;99.90;;;;;;4876755;29;20049;-78
2023/04/15 00:28:26;;;;;;;11.57;4.63;;;5.40;99.90;;;;;;4861781;29;20045;-78
2023/04/15 00:30:53;;;;;;;8.82;4.60;;;5.00;99.90;;;;;;4846583;29;20041;-78
2023/04/15 00:33:20;;;;;;;9.55;4.18;;;5.00;99.90;;;;;;4861460;29;20041;-78
2023/04/15 00:35:46;;;;;;;10.50;4.18;;;5.00;99.90;;;;;;4846267;29;20106;-78
2023/04/15 00:38:13;;;;;;;8.52;4.30;;;4.90;99.90;;;;;;4858251;29;20037;-78
2023/04/15 00:40:40;;;;;;;9.93;4.20;;;4.90;99.90;;;;;;4875422;29;20084;-78
2023/04/15 00:43:07;;;;;;;11.15;4.93;;;5.10;99.90;;;;;;4861689;29;20521;-78
2023/04/15 00:45:34;;;;;;;8.48;4.40;;;4.90;99.90;;;;;;4846842;29;20042;-78
2023/04/15 00:48:01;;;;;;;11.13;4.75;;;4.90;99.90;;;;;;4864798;29;20053;-78
2023/04/15 00:50:27;;;;;;;7.75;4.40;;;4.80;99.90;;;;;;4880072;29;20049;-78
2023/04/15 00:52:54;;;;;;;9.93;4.57;;;4.80;99.90;;;;;;4864600;29;20050;-78
2023/04/15 00:55:21;;;;;;;7.93;4.55;;;4.90;99.90;;;;;;4864612;29;20060;-78
2023/04/15 00:57:49;;;;;;;8.98;4.60;;;4.70;99.90;;;;;;4880282;29;20049;-78
2023/04/15 01:00:16;;;;;;;9.52;4.82;;;4.70;99.90;;;;;;4864695;29;20042;-78
2023/04/15 01:02:44;;;;;;;9.35;4.43;;;4.70;99.90;;;;;;4864952;29;20074;-78
2023/04/15 01:05:11;;;;;;;9.50;4.50;;;4.70;99.90;;;;;;4879801;29;20090;-78
2023/04/15 01:07:37;;;;;;;10.50;4.45;;;4.60;99.90;;;;;;4864601;29;20041;-78
2023/04/15 01:10:04;;;;;;;10.68;5.38;;;4.60;99.90;;;;;;4864334;29;20042;-78
2023/04/15 01:12:32;;;;;;;8.57;4.93;;;4.70;99.90;;;;;;4864118;29;20491;-78
2023/04/15 01:15:00;;;;;;;9.93;5.10;;;4.60;99.90;;;;;;4879273;29;20045;-78
2023/04/15 01:17:27;;;;;;;8.82;4.70;;;4.60;99.90;;;;;;4864036;29;20041;-78
2023/04/15 01:19:56;;;;;;;11.82;5.13;;;4.60;99.90;;;;;;4864712;29;20045;-78
2023/04/15 01:22:27;;;;;;;9.80;4.85;;;4.60;99.90;;;;;;4894937;29;20052;-79
2023/04/15 01:25:05;;;;;;;9.07;5.00;;;4.50;99.90;;;;;;4879541;29;22004;-78
2023/04/15 01:27:34;;;;;;;13.02;5.13;;;4.60;99.90;;;;;;4879375;29;20481;-78
2023/04/15 01:30:02;;;;;;;10.90;4.93;;;4.50;99.90;;;;;;4864360;29;20088;-79
2023/04/15 01:32:29;;;;;;;10.23;4.95;;;4.50;99.90;;;;;;4864470;29;20046;-78
2023/04/15 01:34:56;;;;;;;8.88;4.75;;;4.50;99.90;;;;;;4864186;29;20817;-78
2023/04/15 01:37:24;;;;;;;8.75;5.20;;;4.50;99.90;;;;;;4864013;29;20045;-79
2023/04/15 01:39:51;;;;;;;9.48;4.65;;;4.40;99.90;;;;;;4879041;29;20456;-79
2023/04/15 01:42:17;;;;;;;9.25;4.95;;;4.40;99.90;;;;;;4863991;29;20081;-79
2023/04/15 01:44:44;;;;;;;10.07;5.20;;;4.40;99.90;;;;;;4863772;29;20081;-79
2023/04/15 01:47:11;;;;;;;10.00;5.15;;;4.40;99.90;;;;;;4879155;29;20132;-79
2023/04/15 01:49:38;;;;;;;8.68;4.85;;;4.30;99.90;;;;;;4894343;29;20502;-80
2023/04/15 01:52:04;;;;;;;9.38;5.10;;;4.30;99.90;;;;;;4877809;29;20065;-80
2023/04/15 01:54:31;;;;;;;9.05;5.28;;;4.30;99.90;;;;;;4863637;29;20117;-80
2023/04/15 01:56:58;;;;;;;9.63;5.68;;;4.30;99.90;;;;;;4876214;29;20037;-80
2023/04/15 01:59:25;;;;;;;9.88;5.85;;;4.30;99.90;;;;;;4860487;29;20175;-80
2023/04/15 02:01:51;;;;;;;14.27;5.63;;;4.50;99.90;;;;;;4875839;29;20507;-80
2023/04/15 02:04:18;;;;;;;11.20;5.63;;;4.40;99.90;;;;;;4845107;29;20046;-79
2023/04/15 02:06:45;;;;;;;11.18;5.72;;;4.40;99.90;;;;;;4847302;29;20050;-80
2023/04/15 02:09:12;;;;;;;10.85;5.90;;;4.30;99.90;;;;;;4863512;29;20417;-80
2023/04/15 02:11:38;;;;;;;10.00;5.45;;;4.40;99.90;;;;;;4863331;29;20041;-80
2023/04/15 02:14:05;;;;;;;9.95;5.60;;;4.40;99.90;;;;;;4848428;29;20046;-80
2023/04/15 02:16:32;;;;;;;11.55;5.90;;;4.40;99.90;;;;;;4848672;29;20102;-80
2023/04/15 02:19:00;;;;;;;10.60;5.60;;;4.40;99.90;;;;;;4893710;29;20106;-81
2023/04/15 02:21:26;;;;;;;11.77;5.68;;;4.40;99.90;;;;;;4863232;29;20045;-80
2023/04/15 02:23:53;;;;;;;8.95;5.32;;;4.40;99.90;;;;;;4863459;29;20053;-80
2023/04/15 02:26:21;;;;;;;11.93;5.70;;;4.40;99.90;;;;;;4863149;29;20145;-80
2023/04/15 02:28:50;;;;;;;11.15;5.90;;;4.40;99.90;;;;;;4848365;29;20041;-80
2023/04/15 02:31:16;;;;;;;12.10;5.75;;;4.40;99.90;;;;;;4863369;29;20053;-80
2023/04/15 02:33:43;;;;;;;9.88;5.80;;;4.40;99.90;;;;;;4878066;29;20115;-79
2023/04/15 02:36:11;;;;;;;12.57;5.95;;;4.50;99.90;;;;;;4878384;29;20115;-79
2023/04/15 02:38:40;;;;;;;11.40;6.78;;;4.70;99.90;;;;;;4847918;29;20045;-80
2023/04/15 02:41:07;;;;;;;15.95;7.10;;;4.30;99.90;;;;;;4878612;29;20124;-80
2023/04/15 02:43:34;;;;;;;12.65;7.25;;;4.40;99.90;;;;;;4878016;29;20502;-80
2023/04/15 02:46:01;;;;;;;12.70;7.03;;;4.30;99.90;;;;;;4878309;29;20102;-80
2023/04/15 02:48:27;;;;;;;15.02;7.53;;;4.30;99.90;;;;;;4877946;29;20054;-80
2023/04/15 02:51:10;;;;;;;14.93;7.82;;;4.40;99.90;;;;;;4862937;29;20077;-80
2023/04/15 02:53:37;;;;;;;16.40;8.52;;;4.40;99.90;;;;;;4893107;29;20069;-79
2023/04/15 02:56:04;;;;;;;14.82;8.00;;;4.30;99.90;;;;;;4863189;29;20056;-79
2023/04/15 02:58:31;;;;;;;15.60;8.18;;;4.30;99.90;;;;;;4862660;29;20056;-80
2023/04/15 03:00:58;;;;;;;14.40;7.88;;;4.60;99.90;;;;;;4859653;29;20041;-79
2023/04/15 03:03:26;;;;;;;14.93;8.40;;;4.30;99.90;;;;;;4870554;29;20041;-80
2023/04/15 03:05:53;;;;;;;15.65;8.15;;;4.40;99.90;;;;;;4859645;29;20046;-80
2023/04/15 03:08:20;;;;;;;14.88;8.65;;;4.40;99.90;;;;;;4859343;29;20045;-80
2023/04/15 03:10:47;;;;;;;15.82;8.38;;;4.30;99.90;;;;;;4874140;29;20061;-80
2023/04/15 03:13:14;;;;;;;14.93;8.75;;;4.30;99.90;;;;;;4874653;29;20538;-80
2023/04/15 03:15:41;;;;;;;18.40;9.30;;;4.40;99.90;;;;;;4858892;29;20073;-80
2023/04/15 03:18:08;;;;;;;16.65;8.43;;;4.30;99.90;;;;;;4859368;29;20052;-80
2023/04/15 03:20:35;;;;;;;16.35;9.13;;;4.60;99.90;;;;;;4859845;29;20081;-80
2023/04/15 03:23:02;;;;;;;17.77;8.82;;;4.30;99.90;;;;;;4877450;29;20050;-80
2023/04/15 03:25:28;;;;;;;17.40;9.43;;;4.30;99.90;;;;;;4877376;29;20049;-80
2023/04/15 03:27:55;;;;;;;17.92;9.50;;;4.30;99.90;;;;;;4877641;29;20052;-80
2023/04/15 03:30:22;;;;;;;17.58;9.30;;;4.50;99.90;;;;;;4862473;29;20109;-80
2023/04/15 03:32:49;;;;;;;18.27;9.45;;;4.30;99.90;;;;;;4876955;29;20490;-80
2023/04/15 03:35:16;;;;;;;17.73;9.60;;;4.20;99.90;;;;;;4877408;29;20048;-80
2023/04/15 03:37:42;;;;;;;18.73;9.65;;;4.20;99.90;;;;;;4877244;29;20088;-80
2023/04/15 03:40:09;;;;;;;18.08;8.98;;;4.20;99.90;;;;;;4877642;29;20107;-80
2023/04/15 03:42:36;;;;;;;17.50;9.52;;;4.20;99.90;;;;;;4862504;29;20128;-80
2023/04/15 03:45:03;;;;;;;16.20;9.20;;;4.60;99.90;;;;;;4877238;29;20133;-80
2023/04/15 03:47:30;;;;;;;18.30;9.45;;;4.20;99.90;;;;;;4877079;29;20049;-80
2023/04/15 03:49:57;;;;;;;17.85;9.52;;;4.20;99.90;;;;;;4862440;29;20049;-79
2023/04/15 03:52:24;;;;;;;15.63;9.20;;;4.20;99.90;;;;;;4861883;29;20129;-80
2023/04/15 03:54:51;;;;;;;20.08;10.20;;;4.20;99.90;;;;;;4843363;29;20061;-80
2023/04/15 03:57:17;;;;;;;17.95;10.65;;;4.20;99.90;;;;;;4843598;29;20042;-80
2023/04/15 03:59:44;;;;;;;18.45;9.60;;;4.70;99.90;;;;;;4858484;29;20103;-80
2023/04/15 04:02:11;;;;;;;16.23;9.63;;;4.20;99.90;;;;;;4843352;29;20125;-80
2023/04/15 04:04:37;;;;;;;19.88;10.80;;;4.30;99.90;;;;;;4844145;29;20057;-79
2023/04/15 04:07:04;;;;;;;17.25;10.50;;;4.20;99.90;;;;;;4861841;29;20125;-79
2023/04/15 04:09:31;;;;;;;19.85;10.30;;;4.20;99.90;;;;;;4861863;29;20049;-80
2023/04/15 04:11:58;;;;;;;18.85;10.38;;;4.20;99.90;;;;;;4862106;29;20045;-80
2023/04/15 04:14:28;;;;;;;20.92;10.15;;;4.20;99.90;;;;;;4861787;29;20045;-80
2023/04/15 04:16:56;;;;;;;22.65;10.60;;;4.20;99.90;;;;;;4865828;29;20041;-80
2023/04/15 04:19:22;;;;;;;19.27;10.52;;;4.20;99.90;;;;;;4865578;29;20123;-80
2023/04/15 04:21:50;;;;;;;18.67;9.55;;;4.20;99.90;;;;;;4880616;29;20132;-80
2023/04/15 04:24:16;;;;;;;16.23;9.45;;;4.20;99.90;;;;;;4880586;29;20399;-80
2023/04/15 04:26:43;;;;;;;16.40;9.35;;;4.20;99.90;;;;;;4861944;29;20120;-80
2023/04/15 04:29:10;;;;;;;17.63;9.70;;;4.20;99.90;;;;;;4846665;29;20147;-80
2023/04/15 04:31:36;;;;;;;17.17;9.55;;;4.20;99.90;;;;;;4861551;29;20064;-79
2023/04/15 04:34:03;;;;;;;17.23;9.32;;;4.20;99.90;;;;;;4861646;29;20049;-80
2023/04/15 04:36:29;;;;;;;15.65;8.52;;;4.40;99.90;;;;;;4862266;29;20038;-80
2023/04/15 04:38:56;;;;;;;15.63;8.57;;;4.40;99.90;;;;;;4846888;29;20077;-80
2023/04/15 04:41:23;;;;;;;15.00;9.07;;;4.40;99.90;;;;;;4861591;29;20042;-79
2023/04/15 04:43:50;;;;;;;17.35;8.88;;;4.40;99.90;;;;;;4846109;29;20423;-80
2023/04/15 04:46:16;;;;;;;17.98;9.35;;;4.50;99.90;;;;;;4846741;29;20137;-80
2023/04/15 04:48:43;;;;;;;16.08;9.05;;;4.60;99.90;;;;;;4895056;29;20041;-80
2023/04/15 04:51:10;;;;;;;15.32;8.57;;;4.70;99.90;;;;;;4880202;29;20498;-80
2023/04/15 04:53:37;;;;;;;15.05;8.40;;;4.80;99.90;;;;;;4879616;29;20069;-80
2023/04/15 04:56:04;;;;;;;16.83;8.57;;;4.90;99.90;;;;;;4864645;29;20132;-80
2023/04/15 04:58:30;;;;;;;16.40;9.25;;;4.90;99.90;;;;;;4876382;29;20042;-80
2023/04/15 05:00:57;;;;;;;17.02;8.88;;;5.10;99.90;;;;;;4861117;29;20073;-80
2023/04/15 05:03:24;;;;;;;16.23;7.90;;;5.00;99.90;;;;;;4846192;29;20053;-80
2023/04/15 05:05:51;;;;;;;16.77;8.50;;;5.00;99.90;;;;;;4860919;29;20411;-80
2023/04/15 05:08:17;;;;;;;18.50;9.10;;;5.30;99.90;;;;;;4864361;29;20410;-80
2023/04/15 05:10:44;;;;;;;19.58;9.18;;;5.10;99.90;;;;;;4879580;29;20132;-80
2023/04/15 05:13:11;;;;;;;17.42;9.15;;;5.20;99.90;;;;;;4864509;29;20042;-80
2023/04/15 05:15:40;;;;;;;15.52;7.85;;;5.20;99.90;;;;;;4880008;29;20077;-80
2023/04/15 05:18:06;;;;;;;16.05;8.80;;;5.20;99.90;;;;;;4864616;29;20093;-80
2023/04/15 05:20:33;;;;;;;16.70;9.43;;;5.40;99.90;;;;;;4864215;29;20049;-80
2023/04/15 05:23:00;;;;;;;17.33;9.48;;;5.40;99.90;;;;;;4879007;29;20084;-80
2023/04/15 05:25:26;;;;;;;15.90;9.05;;;5.50;99.90;;;;;;4849229;29;20052;-80
2023/04/15 05:27:53;;;;;;;21.58;9.02;;;5.60;99.90;;;;;;4880147;29;20041;-80
2023/04/15 05:30:21;;;;;;;15.95;9.43;;;5.70;99.90;;;;;;4849169;29;20144;-80
2023/04/15 05:32:47;;;;;;;15.82;9.23;;;5.80;99.90;;;;;;4879230;29;20536;-80
2023/04/15 05:35:14;;;;;;;18.27;9.32;;;5.90;99.90;;;;;;4849307;29;20038;-80
2023/04/15 05:37:41;;;;;;;15.95;8.88;;;6.10;99.90;;;;;;4849020;29;20041;-80
2023/04/15 05:40:09;;;;;;;15.38;9.00;;;6.00;99.90;;;;;;4864141;29;20562;-80
2023/04/15 05:42:36;;;;;;;17.95;9.75;;;6.10;99.90;;;;;;4879452;29;20042;-80
2023/04/15 05:45:07;;;;;;;17.65;9.55;;;6.20;99.90;;;;;;4863948;29;20202;-80
2023/04/15 05:47:36;;;;;;;18.48;9.38;;;6.30;99.90;;;;;;4864491;29;20094;-80
2023/04/15 05:50:03;;;;;;;18.35;9.80;;;6.30;99.90;;;;;;4893959;29;20414;-80
2023/04/15 05:52:31;;;;;;;18.98;9.40;;;6.40;99.90;;;;;;4863709;29;20064;-80
2023/04/15 05:54:58;;;;;;;16.25;9.10;;;6.40;99.90;;;;;;4863447;29;20064;-80
2023/04/15 05:57:24;;;;;;;15.02;8.00;;;6.50;99.90;;;;;;4894170;29;20495;-80
2023/04/15 05:59:51;;;;;;;16.58;8.48;;;6.50;99.90;;;;;;4863514;29;20041;-80
2023/04/15 06:02:18;;;;;;;15.00;7.88;;;6.50;99.90;;;;;;4863633;29;20116;-80
2023/04/15 06:04:45;;;;;;;17.00;7.75;;;6.60;99.90;;;;;;4863461;29;20041;-80
2023/04/15 06:07:11;;;;;;;16.98;8.00;;;6.60;99.90;;;;;;4863852;29;20135;-80
2023/04/15 06:09:38;;;;;;;13.68;7.82;;;6.60;99.90;;;;;;4879153;29;20045;-80
2023/04/15 06:12:05;;;;;;;16.90;7.78;;;6.70;99.90;;;;;;4863267;29;20050;-80
2023/04/15 06:14:32;;;;;;;13.88;7.28;;;6.70;99.90;;;;;;4863836;29;20041;-80
2023/04/15 06:16:59;;;;;;;14.27;7.25;;;6.70;99.90;;;;;;4878398;29;20052;-80
2023/04/15 06:19:25;;;;;;;14.02;7.50;;;6.80;99.90;;;;;;4878510;29;20041;-80
2023/04/15 06:21:52;;;;;;;14.27;6.60;;;6.80;99.90;;;;;;4858641;29;20041;-80
2023/04/15 06:24:19;;;;;;;14.60;7.05;;;6.80;99.90;;;;;;4860316;29;20053;-80
2023/04/15 06:26:46;;;;;;;13.90;7.07;;;6.90;99.90;;;;;;4860567;29;20048;-80
2023/04/15 06:29:13;;;;;;;14.43;7.05;;;6.90;99.90;;;;;;4859764;29;20046;-80
2023/04/15 06:31:40;;;;;;;12.50;6.75;;;6.90;99.90;;;;;;4875459;29;20413;-80
2023/04/15 06:34:07;;;;;;;14.07;6.45;;;7.20;99.90;;;;;;4877804;29;20105;-80
2023/04/15 06:36:34;;;;;;;14.55;6.07;;;7.00;99.90;;;;;;4878363;29;20503;-80
2023/04/15 06:39:01;;;;;;;12.10;6.10;;;7.00;99.90;;;;;;4847654;29;20041;-80
2023/04/15 06:41:28;;;;;;;13.77;6.47;;;7.00;99.90;;;;;;4863427;29;20053;-80
2023/04/15 06:43:55;;;;;;;12.73;5.85;;;7.00;99.90;;;;;;4844565;29;20102;-80
2023/04/15 06:46:21;;;;;;;9.52;5.43;;;7.10;99.90;;;;;;4859849;29;20117;-80
2023/04/15 06:48:48;;;;;;;14.60;6.20;;;7.10;99.90;;;;;;4859527;29;20042;-80
2023/04/15 06:51:15;;;;;;;11.10;5.55;;;7.10;99.90;;;;;;4844561;29;20477;-81
2023/04/15 06:53:42;;;;;;;10.07;5.47;;;7.20;99.90;;;;;;4868788;29;20057;-80
2023/04/15 06:56:09;;;;;;;9.43;5.05;;;7.20;99.90;;;;;;4850326;29;20050;-80
2023/04/15 06:58:36;;;;;;;8.55;5.47;;;7.30;99.90;;;;;;4862708;29;20041;-81
2023/04/15 07:01:03;;;;;;;10.18;5.57;;;7.30;99.90;;;;;;4865433;29;20127;-80
2023/04/15 07:03:30;;;;;;;11.13;6.18;;;7.40;99.90;;;;;;4863785;29;20049;-81
2023/04/15 07:05:57;;;;;;;11.40;5.25;;;7.50;99.90;;;;;;4862518;29;20041;-81
2023/04/15 07:08:24;;;;;;;10.15;5.78;;;7.60;99.90;;;;;;4877659;29;20561;-80
2023/04/15 07:10:51;;;;;;;9.70;5.50;;;7.60;99.90;;;;;;4862266;29;20136;-80
2023/04/15 07:13:17;;;;;;;9.95;5.68;;;7.70;99.90;;;;;;4882827;29;20124;-80
2023/04/15 07:15:44;;;;;;;10.82;5.97;;;7.80;99.90;;;;;;4837315;29;20041;-80
2023/04/15 07:18:11;;;;;;;12.38;5.30;;;7.90;99.90;;;;;;4877003;29;20045;-80
2023/04/15 07:20:38;;;;;;;10.43;5.60;;;7.90;99.90;;;;;;4911230;29;20041;-80
2023/04/15 07:23:05;;;;;;;9.80;5.93;;;8.00;99.90;;;;;;4880562;29;20517;-80
2023/04/15 07:25:32;;;;;;;12.98;6.03;;;8.00;99.90;;;;;;4857815;29;20079;-81
2023/04/15 07:27:58;;;;;;;8.48;5.13;;;8.10;99.90;;;;;;4862287;29;20049;-80
2023/04/15 07:30:25;;;;;;;10.02;4.93;;;8.10;99.90;;;;;;4877340;29;20041;-80
2023/04/15 07:32:52;;;;;;;8.63;4.68;;;8.10;99.90;;;;;;4862000;29;20053;-80
2023/04/15 07:35:20;;;;;;;8.10;4.18;;;8.10;99.90;;;;;;4862325;29;20045;-80
2023/04/15 07:37:47;;;;;;;10.75;4.05;;;8.20;99.90;;;;;;4877302;29;20049;-80
2023/04/15 07:40:15;;;;;;;7.15;3.90;;;8.20;99.90;;;;;;4861912;29;20042;-80
2023/04/15 07:42:42;;;;;;;6.03;3.83;;;8.30;99.90;;;;;;4862127;29;20459;-80
2023/04/15 07:45:09;;;;;;;8.43;4.03;;;8.30;99.90;;;;;;4861691;29;20403;-82
2023/04/15 07:47:36;;;;;;;6.93;3.90;;;8.30;99.90;;;;;;4877051;29;20046;-85
2023/04/15 07:50:03;;;;;;;9.05;4.30;;;8.40;99.90;;;;;;4871886;29;20414;-84
2023/04/15 07:52:30;;;;;;;6.13;3.60;;;8.40;99.90;;;;;;4865295;29;20071;-84
2023/04/15 07:54:56;;;;;;;9.15;4.38;;;8.50;99.90;;;;;;4873463;29;20109;-84
2023/04/15 07:57:23;;;;;;;7.72;4.07;;;8.40;99.90;;;;;;4873601;29;20041;-83
2023/04/15 07:59:50;;;;;;;7.80;3.85;;;8.40;99.90;;;;;;4880499;29;20037;-84
2023/04/15 08:02:17;;;;;;;9.55;3.90;;;8.40;99.90;;;;;;4880468;29;20075;-84
2023/04/15 08:04:43;;;;;;;9.25;4.13;;;8.30;99.90;;;;;;4865453;29;20044;-85
2023/04/15 08:07:10;;;;;;;7.05;3.92;;;8.30;99.90;;;;;;4876347;29;20511;-85
2023/04/15 08:09:37;;;;;;;10.60;3.70;;;8.30;99.90;;;;;;4861170;29;20054;-85
2023/04/15 08:12:04;;;;;;;8.52;3.63;;;8.30;99.90;;;;;;4846495;29;20136;-87
2023/04/15 08:14:31;;;;;;;6.90;3.15;;;8.30;99.90;;;;;;4862579;29;20128;-85
2023/04/15 08:16:57;;;;;;;5.75;3.13;;;8.30;99.90;;;;;;4876827;29;20128;-84
2023/04/15 08:19:24;;;;;;;5.97;3.08;;;8.40;99.90;;;;;;4858652;29;20072;-84
2023/04/15 08:21:51;;;;;;;6.55;3.20;;;8.50;99.90;;;;;;4860083;29;20121;-86
2023/04/15 08:24:18;;;;;;;5.38;2.92;;;8.50;99.90;;;;;;4888634;29;20048;-86
2023/04/15 08:26:46;;;;;;;4.63;2.70;;;8.60;99.90;;;;;;4858701;29;20105;-86
2023/04/15 08:29:12;;;;;;;5.40;2.67;;;8.50;99.90;;;;;;4869890;29;20092;-88
2023/04/15 08:31:39;;;;;;;6.55;2.50;;;8.60;99.90;;;;;;4863888;29;20081;-88
2023/04/15 08:34:06;;;;;;;5.53;2.92;;;8.50;99.90;;;;;;4877473;29;20132;-85
2023/04/15 08:36:33;;;;;;;5.05;2.92;;;8.50;99.90;;;;;;4861751;29;20052;-85
2023/04/15 08:39:03;;;;;;;8.82;2.97;;;8.50;99.90;;;;;;4858222;29;20050;-84
2023/04/15 08:41:40;;;;;;;4.90;2.40;;;8.50;99.90;;;;;;4858290;29;20058;-84
2023/04/15 08:44:09;;;;;;;5.40;2.80;;;8.60;99.90;;;;;;4858176;29;20414;-85
2023/04/15 08:46:38;;;;;;;4.75;2.22;;;8.60;99.90;;;;;;4858591;29;20046;-85
2023/04/15 08:49:07;;;;;;;5.32;2.80;;;8.80;99.90;;;;;;4843415;29;20050;-85
2023/04/15 08:51:34;;;;;;;5.13;2.70;;;8.80;99.90;;;;;;4858829;29;20110;-84
2023/04/15 08:54:02;;;;;;;5.05;2.47;;;8.80;99.90;;;;;;4843067;29;20465;-84
2023/04/15 08:56:33;;;;;;;5.60;2.20;;;8.80;99.90;;;;;;4858037;29;20522;-85
2023/04/15 08:59:00;;;;;;;7.07;2.63;;;8.90;99.90;;;;;;4891283;29;20048;-85
2023/04/15 09:01:28;;;;;;;5.38;2.45;;;8.80;99.90;;;;;;4866101;29;20068;-85
2023/04/15 09:03:55;;;;;;;6.05;2.40;;;8.80;99.90;;;;;;4861631;29;20042;-83
2023/04/15 09:06:23;;;;;;;7.43;2.67;;;8.80;99.90;;;;;;4869246;29;20507;-83
2023/04/15 09:08:50;;;;;;;6.65;2.53;;;8.80;99.90;;;;;;4913941;29;20045;-83
2023/04/15 09:11:18;;;;;;;8.38;2.42;;;8.80;99.90;;;;;;4886336;29;20071;-83
2023/04/15 09:13:45;;;;;;;4.93;2.33;;;8.80;99.90;;;;;;4864516;29;20130;-83
2023/04/15 09:16:12;;;;;;;6.85;2.65;;;8.70;99.90;;;;;;4879669;29;20046;-83
2023/04/15 09:18:39;;;;;;;4.63;2.30;;;8.80;99.90;;;;;;4861499;29;20045;-84
2023/04/15 09:21:13;;;;;;;5.43;2.45;;;8.80;99.90;;;;;;4864280;29;20042;-83
2023/04/15 09:23:56;;;;;;;6.90;2.28;;;8.80;99.90;;;;;;4895851;29;20045;-83
2023/04/15 09:26:34;;;;;;;7.50;2.47;;;8.80;99.90;;;;;;4890669;29;20045;-83
2023/04/15 09:29:06;;;;;;;7.78;2.50;;;8.80;99.90;;;;;;4889866;29;20049;-83
2023/04/15 09:31:33;;;;;;;5.40;2.28;;;8.90;99.90;;;;;;4877423;29;20056;-83
2023/04/15 09:33:59;;;;;;;8.48;1.92;;;8.90;99.90;;;;;;4898211;29;20049;-83
2023/04/15 09:36:28;;;;;;;4.85;2.35;;;9.00;99.90;;;;;;4867386;29;20056;-84
2023/04/15 09:38:56;;;;;;;7.15;2.50;;;8.90;99.90;;;;;;4860878;29;20407;-83
2023/04/15 09:41:27;;;;;;;7.30;2.00;;;9.00;99.90;;;;;;4860698;29;20045;-83
2023/04/15 09:43:54;;;;;;;7.07;2.15;;;9.00;99.90;;;;;;4861246;29;20392;-84
2023/04/15 09:46:42;;;;;;;7.28;2.00;;;9.00;99.90;;;;;;4860593;29;20057;-83
2023/04/15 09:49:10;;;;;;;4.28;2.00;;;9.00;99.90;;;;;;4873657;29;20076;-83
2023/04/15 09:51:38;;;;;;;7.10;2.00;;;9.00;99.90;;;;;;4893881;29;20455;-83
2023/04/15 09:54:04;;;;;;;6.78;2.30;;;9.00;99.90;;;;;;4863780;29;20414;-83
2023/04/15 09:56:35;;;;;;;6.22;1.90;;;9.00;99.90;;;;;;4850760;29;20045;-84
2023/04/15 09:59:02;;;;;;;6.28;2.10;;;9.00;99.90;;;;;;4860824;29;20045;-84
2023/04/15 10:01:28;;;;;;;7.78;2.97;;;9.00;99.90;;;;;;4850973;29;20038;-83
2023/04/15 10:03:56;;;;;;;6.95;2.45;;;8.90;99.90;;;;;;4845486;29;20046;-83
2023/04/15 10:06:25;;;;;;;5.95;2.10;;;8.90;99.90;;;;;;4864631;29;20503;-83
2023/04/15 10:08:53;;;;;;;7.53;2.50;;;8.90;99.90;;;;;;4897664;29;20108;-83
2023/04/15 10:11:22;;;;;;;6.10;2.03;;;8.90;99.90;;;;;;4866787;29;20049;-83
2023/04/15 10:13:50;;;;;;;5.55;2.17;;;8.90;99.90;;;;;;4880977;29;20044;-83
2023/04/15 10:16:20;;;;;;;8.93;2.20;;;9.00;99.90;;;;;;4866856;29;20040;-83
2023/04/15 10:18:53;;;;;;;5.32;2.10;;;9.00;99.90;;;;;;4897341;29;20782;-83
2023/04/15 10:21:22;;;;;;;7.70;2.55;;;9.00;99.90;;;;;;4897574;29;20512;-83
2023/04/15 10:23:50;;;;;;;7.13;2.40;;;9.00;99.90;;;;;;4882149;29;20049;-83
2023/04/15 10:26:17;;;;;;;3.80;1.85;;;9.00;99.90;;;;;;4908404;29;20133;-84
2023/04/15 10:28:46;;;;;;;3.47;1.80;;;9.00;99.90;;;;;;4878593;29;20045;-83
2023/04/15 10:31:13;;;;;;;8.80;2.40;;;9.00;99.90;;;;;;4865821;29;20113;-83
2023/04/15 10:33:43;;;;;;;7.20;1.85;;;9.00;99.90;;;;;;4866547;29;20046;-83
2023/04/15 10:36:11;;;;;;;5.20;2.17;;;9.00;99.90;;;;;;4878284;29;20487;-83
2023/04/15 10:38:45;;;;;;;4.70;1.67;;;9.00;99.90;;;;;;4859422;29;20098;-83
2023/04/15 10:41:20;;;;;;;5.68;1.92;;;9.10;99.90;;;;;;4865505;29;20101;-83
2023/04/15 10:43:48;;;;;;;5.30;1.90;;;9.10;99.90;;;;;;4866428;29;20050;-83
2023/04/15 10:46:42;;;;;;;5.57;1.80;;;9.00;99.90;;;;;;4877926;29;20487;-83
2023/04/15 10:49:23;;;;;;;5.47;1.83;;;8.90;99.90;;;;;;4875556;29;20057;-83
2023/04/15 10:51:57;;;;;;;5.40;2.15;;;8.90;99.90;;;;;;4879775;29;20059;-83
2023/04/15 10:54:24;;;;;;;4.00;1.70;;;8.90;99.90;;;;;;4893258;29;20089;-83
2023/04/15 10:57:06;;;;;;;7.18;1.95;;;8.90;99.90;;;;;;4877877;29;20133;-83
2023/04/15 10:59:38;;;;;;;7.35;1.83;;;8.90;99.90;;;;;;4893069;29;20045;-83
2023/04/15 11:02:06;;;;;;;6.07;1.70;;;8.90;99.90;;;;;;4877789;29;20148;-83
2023/04/15 11:04:58;;;;;;;4.10;1.75;;;9.00;99.90;;;;;;4893406;29;20107;-83
2023/04/15 11:07:48;;;;;;;7.78;1.83;;;8.90;99.90;;;;;;4886120;29;20061;-83
2023/04/15 11:10:30;;;;;;;8.20;2.25;;;8.90;99.90;;;;;;4896343;29;20057;-83
2023/04/15 11:12:58;;;;;;;5.55;2.13;;;8.90;99.90;;;;;;4896371;29;20045;-82
2023/04/15 11:15:36;;;;;;;7.30;2.35;;;8.80;99.90;;;;;;4911495;29;20505;-84
2023/04/15 11:18:12;;;;;;;8.40;2.60;;;8.80;99.90;;;;;;4896095;29;20045;-83
2023/04/15 11:20:40;;;;;;;8.60;2.30;;;8.70;99.90;;;;;;4896051;29;20132;-83
2023/04/15 11:23:08;;;;;;;4.20;1.67;;;8.80;99.90;;;;;;4871286;29;20041;-83
2023/04/15 11:25:38;;;;;;;4.82;1.60;;;8.80;99.90;;;;;;4877290;29;20053;-83
2023/04/15 11:28:06;;;;;;;4.90;1.80;;;8.80;99.90;;;;;;4877446;29;20049;-83
2023/04/15 11:30:34;;;;;;;3.63;1.63;;;8.80;99.90;;;;;;4862246;29;20048;-82
2023/04/15 11:33:03;;;;;;;4.25;1.65;;;8.80;99.90;;;;;;4877609;29;20048;-83
2023/04/15 11:35:31;;;;;;;4.75;1.73;;;8.80;99.90;;;;;;4879808;29;20041;-83
2023/04/15 11:38:01;;;;;;;4.68;1.65;;;8.80;99.90;;;;;;4862050;29;20049;-83
2023/04/15 11:40:29;;;;;;;9.38;3.10;;;8.80;99.90;;;;;;4862375;29;20045;-83
2023/04/15 11:43:13;;;;;;;5.25;1.70;;;8.70;99.90;;;;;;4862225;29;20081;-84
2023/04/15 11:45:58;;;;;;;6.90;1.80;;;8.70;99.90;;;;;;4863311;29;20052;-85
2023/04/15 11:48:31;;;;;;;7.25;2.00;;;8.70;99.90;;;;;;4877581;29;20045;-85
2023/04/15 11:51:05;;;;;;;6.55;1.73;;;8.70;99.90;;;;;;4877127;29;20052;-85
2023/04/15 11:53:46;;;;;;;6.38;1.80;;;8.70;99.90;;;;;;4876800;29;20050;-85
2023/04/15 11:56:24;;;;;;;4.22;1.50;;;8.70;99.90;;;;;;4858847;29;20097;-85
2023/04/15 11:58:57;;;;;;;11.55;1.90;;;8.60;99.90;;;;;;4876564;29;20521;-85
2023/04/15 12:01:42;;;;;;;4.95;1.65;;;8.60;99.90;;;;;;4877376;29;20042;-85
2023/04/15 12:04:15;;;;;;;7.22;1.80;;;8.60;99.90;;;;;;4877166;29;20081;-85
2023/04/15 12:06:42;;;;;;;10.18;3.65;;;8.50;99.90;;;;;;4861984;29;20049;-85
2023/04/15 12:09:13;;;;;;;9.00;1.83;;;8.50;99.90;;;;;;4876940;29;20105;-84
2023/04/15 12:11:41;;;;;;;4.38;1.88;;;8.50;99.90;;;;;;4862125;29;20053;-84
2023/04/15 12:14:27;;;;;;;7.63;1.77;;;8.50;99.90;;;;;;4876893;29;20042;-84
2023/04/15 12:17:00;;;;;;;6.88;1.73;;;8.40;99.90;;;;;;4876802;29;20033;-85
2023/04/15 12:19:34;;;;;;;5.45;1.67;;;8.40;99.90;;;;;;4876640;29;20132;-84
2023/04/15 12:22:08;;;;;;;6.82;1.50;;;8.50;99.90;;;;;;4862502;29;20042;-84
2023/04/15 12:24:36;;;;;;;6.95;1.98;;;8.50;99.90;;;;;;4877300;29;20049;-84
2023/04/15 12:27:07;;;;;;;5.72;1.60;;;8.40;99.90;;;;;;4892122;29;20413;-84
2023/04/15 12:29:37;;;;;;;14.75;1.95;;;8.40;99.90;;;;;;4876795;29;20499;-84
2023/04/15 12:32:06;;;;;;;5.70;2.15;;;8.40;99.90;;;;;;4876835;29;20056;-84
2023/04/15 12:34:53;;;;;;;7.82;1.60;;;8.40;99.90;;;;;;4876356;29;20140;-84
2023/04/15 12:37:20;;;;;;;9.23;2.35;;;8.50;99.90;;;;;;4863956;29;20084;-84
2023/04/15 12:39:48;;;;;;;7.07;1.73;;;8.40;99.90;;;;;;4880398;29;20053;-84
2023/04/15 12:42:16;;;;;;;9.55;2.13;;;8.40;99.90;;;;;;4880855;29;20105;-84
2023/04/15 12:44:43;;;;;;;6.85;1.63;;;8.40;99.90;;;;;;4880254;29;20080;-84
2023/04/15 12:47:12;;;;;;;13.32;2.35;;;8.40;99.90;;;;;;4880457;29;20507;-84
2023/04/15 12:49:39;;;;;;;4.60;1.63;;;8.40;99.90;;;;;;4865268;29;20411;-84
2023/04/15 12:52:06;;;;;;;7.10;2.20;;;8.40;99.90;;;;;;4864928;29;20061;-84
2023/04/15 12:54:33;;;;;;;4.75;1.40;;;8.40;99.90;;;;;;4864536;29;20049;-84
2023/04/15 12:57:00;;;;;;;9.70;1.65;;;8.30;99.90;;;;;;4864811;29;20053;-84
2023/04/15 12:59:27;;;;;;;7.97;1.70;;;8.30;99.90;;;;;;4864653;29;20037;-85